Charleston Express — WDD6126 — position and weather

sailwx.info

Track history (hours):
 
Tides and Currents Weather Stations Pressure Air Temp Water Temp Dewpoint Dewpoint Depression Visibility Wind Speed Wind Dir Waves Ship Positions

Charleston Express

Owner: Marine Transport Management, Inc., Jacksonville, FL. More information available from US FCC via Universal Licensing System and Coast Guard Vessel Documentation Center.

Last reported at 2018-Feb-17 14:00 UTC. Time now 2018-Feb-21 17:25 UTC.
Position N 38°48' W 064°54'.

Length 243 m; draft 8.9 m.

Type: Ship. MMSI: 367168640.

Wind from 360 at 23 knots

Barometer 1024.7 mb
Air temperature 13.0 ° C
Visibility: greater than 10.8 NM
Dewpoint 4.2 ° C
Water temperature 23.0 ° C

Date/timePositionNaut miles runAvg speedWind from/ knotsBaromVisibWave heightAir tempDewpointWater temp
2018-Feb-17 14:00N 38°48' W 064°54'53018.4 360 / 231024.710.8 13.0 4.223.0
2018-Feb-16 09:17N 36°49' W 075°47'3 9.2
2018-Feb-16 08:59N 36°51' W 075°50'4 9.1
2018-Feb-16 08:30N 36°53' W 075°54'5 9.4
2018-Feb-16 08:00N 36°56' W 075°59'612.0
2018-Feb-16 07:30N 36°58' W 076°06'815.8
2018-Feb-16 07:00N 37°00' W 076°16'510.1
2018-Feb-16 06:30N 36°57' W 076°20'2 3.0
2018-Feb-16 06:00N 36°55' W 076°20'0 0.0
2018-Feb-16 05:30N 36°55' W 076°20'0 0.0
2018-Feb-16 05:00N 36°55' W 076°20'0 0.0
2018-Feb-16 04:30N 36°55' W 076°20'0 0.0
2018-Feb-16 04:00N 36°55' W 076°20'0 0.0
2018-Feb-16 03:30N 36°55' W 076°20'0 0.0
2018-Feb-16 03:00N 36°55' W 076°20'0 0.0
2018-Feb-16 02:30N 36°55' W 076°20'0 0.0
2018-Feb-16 02:00N 36°55' W 076°20'0 0.0
2018-Feb-16 01:30N 36°55' W 076°20'0 0.0
2018-Feb-16 01:00N 36°55' W 076°20'0 0.0
2018-Feb-16 00:30N 36°55' W 076°20'0 0.0
2018-Feb-16 00:00N 36°55' W 076°20'0 0.0
2018-Feb-15 23:30N 36°55' W 076°20'0 0.0
2018-Feb-15 23:00N 36°55' W 076°20'0 0.0
2018-Feb-15 22:30N 36°55' W 076°20'0 0.0
2018-Feb-15 22:00N 36°55' W 076°20'0 0.0
2018-Feb-15 21:30N 36°55' W 076°20'0 0.0
2018-Feb-15 21:00N 36°55' W 076°20'0 0.0
2018-Feb-15 20:30N 36°55' W 076°20'0 0.0
2018-Feb-15 20:00N 36°55' W 076°20'0 0.0
2018-Feb-15 19:30N 36°55' W 076°20'0 0.0
2018-Feb-15 19:00N 36°55' W 076°20'0 0.0
2018-Feb-15 18:30N 36°55' W 076°20'0 0.0
2018-Feb-15 18:00N 36°55' W 076°20'0 0.0
2018-Feb-15 17:30N 36°55' W 076°20'0 0.0
2018-Feb-15 17:00N 36°55' W 076°20'0 0.0
2018-Feb-15 16:30N 36°55' W 076°20'0 0.0
2018-Feb-15 16:00N 36°55' W 076°20'0 0.0
2018-Feb-15 15:30N 36°55' W 076°20'0 0.0
2018-Feb-15 15:00N 36°55' W 076°20'0 0.0
2018-Feb-15 14:30N 36°55' W 076°20'0 0.0
2018-Feb-15 14:00N 36°55' W 076°20'0 0.0
2018-Feb-15 13:30N 36°55' W 076°20'0 0.0
2018-Feb-15 13:00N 36°55' W 076°20'0 0.0
2018-Feb-15 12:30N 36°55' W 076°20'0 0.0
2018-Feb-15 12:00N 36°55' W 076°20'0 0.0
2018-Feb-15 11:30N 36°55' W 076°20'0 0.0
2018-Feb-15 11:00N 36°55' W 076°20'0 0.0
2018-Feb-15 10:30N 36°55' W 076°20'0 0.7
2018-Feb-15 10:01N 36°56' W 076°20'3 6.3
2018-Feb-15 09:30N 36°59' W 076°19'510.1
2018-Feb-15 09:00N 37°00' W 076°13'714.7
2018-Feb-15 08:30N 36°58' W 076°05'610.9
2018-Feb-15 07:59N 36°57' W 075°58'21413.4
2018-Feb-14 16:00N 33°30' W 077°06'16917.4 040 / 151032.0 2.2 17.015.323.0
2018-Feb-14 06:17N 32°02' W 079°58'517.5
2018-Feb-14 06:00N 31°59' W 080°03'917.5
2018-Feb-14 05:30N 31°56' W 080°12'1118.0
2018-Feb-14 04:55N 31°53' W 080°24'613.5
2018-Feb-14 04:29N 31°52' W 080°31'4 9.4
2018-Feb-14 04:00N 31°54' W 080°36'5 9.5
2018-Feb-14 03:30N 31°56' W 080°41'510.5
2018-Feb-14 03:01N 31°59' W 080°46'714.6
2018-Feb-14 02:30N 32°02' W 080°54'612.6
2018-Feb-14 02:00N 32°06' W 080°60'4 8.7
2018-Feb-14 01:30N 32°05' W 081°05'3 6.7
2018-Feb-14 01:00N 32°07' W 081°08'1 1.8
2018-Feb-14 00:30N 32°08' W 081°08'0 0.0
2018-Feb-14 00:00N 32°08' W 081°08'0 0.0
2018-Feb-13 23:30N 32°08' W 081°08'0 0.0
2018-Feb-13 23:00N 32°08' W 081°08'0 0.0
2018-Feb-13 22:30N 32°08' W 081°08'0 0.0
2018-Feb-13 21:54N 32°08' W 081°08'0 0.0
2018-Feb-13 21:30N 32°08' W 081°08'0 0.0
2018-Feb-13 21:00N 32°08' W 081°08'0 0.0
2018-Feb-13 20:30N 32°08' W 081°08'0 0.0
2018-Feb-13 20:00N 32°08' W 081°08'0 0.0
2018-Feb-13 19:30N 32°08' W 081°08'0 0.0
2018-Feb-13 19:00N 32°08' W 081°08'0 0.0
2018-Feb-13 18:30N 32°08' W 081°08'0 0.0
2018-Feb-13 18:00N 32°08' W 081°08'0 0.0
2018-Feb-13 17:30N 32°08' W 081°08'0 0.0
2018-Feb-13 17:00N 32°08' W 081°08'0 0.0
2018-Feb-13 16:30N 32°08' W 081°08'0 0.0
2018-Feb-13 16:00N 32°08' W 081°08'0 0.0
2018-Feb-13 15:30N 32°08' W 081°08'0 0.0
2018-Feb-13 15:00N 32°08' W 081°08'0 0.0
2018-Feb-13 14:30N 32°08' W 081°08'0 0.0
2018-Feb-13 14:00N 32°08' W 081°08'0 0.0
2018-Feb-13 13:30N 32°08' W 081°08'0 0.0
2018-Feb-13 13:00N 32°08' W 081°08'0 0.0
2018-Feb-13 12:30N 32°08' W 081°08'0 0.0
2018-Feb-13 12:00N 32°08' W 081°08'0 0.0
2018-Feb-13 11:30N 32°08' W 081°08'0 0.0
2018-Feb-13 10:48N 32°08' W 081°08'0 0.0
2018-Feb-13 10:30N 32°08' W 081°08'0 0.0
2018-Feb-13 10:00N 32°08' W 081°08'0 0.0
2018-Feb-13 09:30N 32°08' W 081°08'0 0.0
2018-Feb-13 09:00N 32°08' W 081°08'0 0.0
2018-Feb-13 08:24N 32°08' W 081°08'0 0.0
2018-Feb-13 08:00N 32°08' W 081°08'0 0.0
2018-Feb-13 07:30N 32°08' W 081°08'0 0.0
2018-Feb-13 07:00N 32°08' W 081°08'0 0.0
2018-Feb-13 06:30N 32°08' W 081°08'0 0.0
2018-Feb-13 06:00N 32°08' W 081°08'0 0.0
2018-Feb-13 05:30N 32°08' W 081°08'1 1.6
2018-Feb-13 05:00N 32°07' W 081°08'3 5.0
2018-Feb-13 04:30N 32°05' W 081°06'3 5.5
2018-Feb-13 03:59N 32°05' W 081°02'4 8.4
2018-Feb-13 03:30N 32°04' W 080°58'5 9.4
2018-Feb-13 03:00N 32°02' W 080°53'611.7
2018-Feb-13 02:30N 31°60' W 080°47'611.6
2018-Feb-13 02:00N 31°58' W 080°40'4 8.3
2018-Feb-13 01:30N 31°59' W 080°36'1 1.9
2018-Feb-13 00:53N 31°60' W 080°35'0 0.1
2018-Feb-13 00:29N 31°60' W 080°35'0 0.1
2018-Feb-12 23:59N 31°60' W 080°35'0 0.0
2018-Feb-12 23:29N 31°60' W 080°35'0 0.0
2018-Feb-12 22:41N 31°60' W 080°35'0 0.1
2018-Feb-12 22:29N 31°60' W 080°35'0 0.1
2018-Feb-12 21:53N 31°60' W 080°35'0 0.1
2018-Feb-12 21:29N 31°60' W 080°35'0 0.0
2018-Feb-12 20:59N 31°60' W 080°35'0 0.0
2018-Feb-12 20:23N 31°60' W 080°35'0 0.0
2018-Feb-12 19:59N 31°60' W 080°35'0 0.0
2018-Feb-12 19:29N 31°60' W 080°35'0 0.0
2018-Feb-12 18:59N 31°60' W 080°35'0 0.0
2018-Feb-12 18:23N 31°60' W 080°35'0 0.0
2018-Feb-12 17:59N 31°60' W 080°35'0 0.1
2018-Feb-12 17:23N 31°60' W 080°35'0 0.3
2018-Feb-12 16:59N 31°60' W 080°35'0 0.2
2018-Feb-12 16:23N 31°60' W 080°35'0 0.1
2018-Feb-12 15:59N 31°60' W 080°35'0 0.0
2018-Feb-12 15:17N 31°60' W 080°35'0 0.1
2018-Feb-12 15:01N 31°60' W 080°35'3 6.2
2018-Feb-12 14:30N 31°57' W 080°34'5 9.6
2018-Feb-12 14:00N 31°52' W 080°33'5 9.5
2018-Feb-12 13:31N 31°47' W 080°32'5 9.5
2018-Feb-12 13:01N 31°43' W 080°31'1111.0
2018-Feb-12 12:03N 31°33' W 080°26'111.5
2018-Feb-12 11:57N 31°32' W 080°25'25112.0
2018-Feb-11 15:00N 27°24' W 079°42'5017.6 180 / 111024.210.8 27.022.625.0
2018-Feb-11 12:09N 26°34' W 079°46'320.5
2018-Feb-11 12:00N 26°31' W 079°47'1020.3
2018-Feb-11 11:30N 26°21' W 079°48'1020.3
2018-Feb-11 11:00N 26°11' W 079°50'1020.1
2018-Feb-11 10:30N 26°01' W 079°52'1020.3
2018-Feb-11 10:00N 25°51' W 079°53'1020.3
2018-Feb-11 09:30N 25°41' W 079°55'1020.3
2018-Feb-11 09:00N 25°31' W 079°58'1020.2
2018-Feb-11 08:30N 25°21' W 080°00'80716.3
2018-Feb-09 07:00N 29°12' W 094°31'2113.8
2018-Feb-09 05:31N 29°24' W 094°49'1413.7
2018-Feb-09 04:30N 29°36' W 094°57'5 0.2
2018-Feb-08 04:00N 29°41' W 094°60'1 1.2
2018-Feb-08 03:30N 29°41' W 094°59'8 8.3
2018-Feb-08 02:30N 29°33' W 094°55'1211.7
2018-Feb-08 01:29N 29°23' W 094°48'510.4
2018-Feb-08 01:00N 29°21' W 094°43'1211.9
2018-Feb-08 00:01N 29°15' W 094°31'2 7.9
2018-Feb-07 23:44N 29°13' W 094°30'  
Track history (hours):
 
Tides and Currents Weather Stations Pressure Air Temp Water Temp Dewpoint Dewpoint Depression Visibility Wind Speed Wind Dir Waves Ship Positions

Charleston Express

Owner: Marine Transport Management, Inc., Jacksonville, FL. More information available from US FCC via Universal Licensing System and Coast Guard Vessel Documentation Center.

Last reported at 2018-Feb-17 14:00 UTC. Time now 2018-Feb-21 17:25 UTC.
Position N 38°48' W 064°54'.

Length 243 m; draft 8.9 m.

Type: Ship. MMSI: 367168640.

Wind from 360 at 23 knots

Barometer 1024.7 mb
Air temperature 13.0 ° C
Visibility: greater than 10.8 NM
Dewpoint 4.2 ° C
Water temperature 23.0 ° C

Date/timePositionNaut miles runAvg speedWind from/ knotsBaromVisibWave heightAir tempDewpointWater temp
2018-Feb-17 14:00N 38°48' W 064°54'53018.4 360 / 231024.710.8 13.0 4.223.0
2018-Feb-16 09:17N 36°49' W 075°47'3 9.2
2018-Feb-16 08:59N 36°51' W 075°50'4 9.1
2018-Feb-16 08:30N 36°53' W 075°54'5 9.4
2018-Feb-16 08:00N 36°56' W 075°59'612.0
2018-Feb-16 07:30N 36°58' W 076°06'815.8
2018-Feb-16 07:00N 37°00' W 076°16'510.1
2018-Feb-16 06:30N 36°57' W 076°20'2 3.0
2018-Feb-16 06:00N 36°55' W 076°20'0 0.0
2018-Feb-16 05:30N 36°55' W 076°20'0 0.0
2018-Feb-16 05:00N 36°55' W 076°20'0 0.0
2018-Feb-16 04:30N 36°55' W 076°20'0 0.0
2018-Feb-16 04:00N 36°55' W 076°20'0 0.0
2018-Feb-16 03:30N 36°55' W 076°20'0 0.0
2018-Feb-16 03:00N 36°55' W 076°20'0 0.0
2018-Feb-16 02:30N 36°55' W 076°20'0 0.0
2018-Feb-16 02:00N 36°55' W 076°20'0 0.0
2018-Feb-16 01:30N 36°55' W 076°20'0 0.0
2018-Feb-16 01:00N 36°55' W 076°20'0 0.0
2018-Feb-16 00:30N 36°55' W 076°20'0 0.0
2018-Feb-16 00:00N 36°55' W 076°20'0 0.0
2018-Feb-15 23:30N 36°55' W 076°20'0 0.0
2018-Feb-15 23:00N 36°55' W 076°20'0 0.0
2018-Feb-15 22:30N 36°55' W 076°20'0 0.0
2018-Feb-15 22:00N 36°55' W 076°20'0 0.0
2018-Feb-15 21:30N 36°55' W 076°20'0 0.0
2018-Feb-15 21:00N 36°55' W 076°20'0 0.0
2018-Feb-15 20:30N 36°55' W 076°20'0 0.0
2018-Feb-15 20:00N 36°55' W 076°20'0 0.0
2018-Feb-15 19:30N 36°55' W 076°20'0 0.0
2018-Feb-15 19:00N 36°55' W 076°20'0 0.0
2018-Feb-15 18:30N 36°55' W 076°20'0 0.0
2018-Feb-15 18:00N 36°55' W 076°20'0 0.0
2018-Feb-15 17:30N 36°55' W 076°20'0 0.0
2018-Feb-15 17:00N 36°55' W 076°20'0 0.0
2018-Feb-15 16:30N 36°55' W 076°20'0 0.0
2018-Feb-15 16:00N 36°55' W 076°20'0 0.0
2018-Feb-15 15:30N 36°55' W 076°20'0 0.0
2018-Feb-15 15:00N 36°55' W 076°20'0 0.0
2018-Feb-15 14:30N 36°55' W 076°20'0 0.0
2018-Feb-15 14:00N 36°55' W 076°20'0 0.0
2018-Feb-15 13:30N 36°55' W 076°20'0 0.0
2018-Feb-15 13:00N 36°55' W 076°20'0 0.0
2018-Feb-15 12:30N 36°55' W 076°20'0 0.0
2018-Feb-15 12:00N 36°55' W 076°20'0 0.0
2018-Feb-15 11:30N 36°55' W 076°20'0 0.0
2018-Feb-15 11:00N 36°55' W 076°20'0 0.0
2018-Feb-15 10:30N 36°55' W 076°20'0 0.7
2018-Feb-15 10:01N 36°56' W 076°20'3 6.3
2018-Feb-15 09:30N 36°59' W 076°19'510.1
2018-Feb-15 09:00N 37°00' W 076°13'714.7
2018-Feb-15 08:30N 36°58' W 076°05'610.9
2018-Feb-15 07:59N 36°57' W 075°58'21413.4
2018-Feb-14 16:00N 33°30' W 077°06'16917.4 040 / 151032.0 2.2 17.015.323.0
2018-Feb-14 06:17N 32°02' W 079°58'517.5
2018-Feb-14 06:00N 31°59' W 080°03'917.5
2018-Feb-14 05:30N 31°56' W 080°12'1118.0
2018-Feb-14 04:55N 31°53' W 080°24'613.5
2018-Feb-14 04:29N 31°52' W 080°31'4 9.4
2018-Feb-14 04:00N 31°54' W 080°36'5 9.5
2018-Feb-14 03:30N 31°56' W 080°41'510.5
2018-Feb-14 03:01N 31°59' W 080°46'714.6
2018-Feb-14 02:30N 32°02' W 080°54'612.6
2018-Feb-14 02:00N 32°06' W 080°60'4 8.7
2018-Feb-14 01:30N 32°05' W 081°05'3 6.7
2018-Feb-14 01:00N 32°07' W 081°08'1 1.8
2018-Feb-14 00:30N 32°08' W 081°08'0 0.0
2018-Feb-14 00:00N 32°08' W 081°08'0 0.0
2018-Feb-13 23:30N 32°08' W 081°08'0 0.0
2018-Feb-13 23:00N 32°08' W 081°08'0 0.0
2018-Feb-13 22:30N 32°08' W 081°08'0 0.0
2018-Feb-13 21:54N 32°08' W 081°08'0 0.0
2018-Feb-13 21:30N 32°08' W 081°08'0 0.0
2018-Feb-13 21:00N 32°08' W 081°08'0 0.0
2018-Feb-13 20:30N 32°08' W 081°08'0 0.0
2018-Feb-13 20:00N 32°08' W 081°08'0 0.0
2018-Feb-13 19:30N 32°08' W 081°08'0 0.0
2018-Feb-13 19:00N 32°08' W 081°08'0 0.0
2018-Feb-13 18:30N 32°08' W 081°08'0 0.0
2018-Feb-13 18:00N 32°08' W 081°08'0 0.0
2018-Feb-13 17:30N 32°08' W 081°08'0 0.0
2018-Feb-13 17:00N 32°08' W 081°08'0 0.0
2018-Feb-13 16:30N 32°08' W 081°08'0 0.0
2018-Feb-13 16:00N 32°08' W 081°08'0 0.0
2018-Feb-13 15:30N 32°08' W 081°08'0 0.0
2018-Feb-13 15:00N 32°08' W 081°08'0 0.0
2018-Feb-13 14:30N 32°08' W 081°08'0 0.0
2018-Feb-13 14:00N 32°08' W 081°08'0 0.0
2018-Feb-13 13:30N 32°08' W 081°08'0 0.0
2018-Feb-13 13:00N 32°08' W 081°08'0 0.0
2018-Feb-13 12:30N 32°08' W 081°08'0 0.0
2018-Feb-13 12:00N 32°08' W 081°08'0 0.0
2018-Feb-13 11:30N 32°08' W 081°08'0 0.0
2018-Feb-13 10:48N 32°08' W 081°08'0 0.0
2018-Feb-13 10:30N 32°08' W 081°08'0 0.0
2018-Feb-13 10:00N 32°08' W 081°08'0 0.0
2018-Feb-13 09:30N 32°08' W 081°08'0 0.0
2018-Feb-13 09:00N 32°08' W 081°08'0 0.0
2018-Feb-13 08:24N 32°08' W 081°08'0 0.0
2018-Feb-13 08:00N 32°08' W 081°08'0 0.0
2018-Feb-13 07:30N 32°08' W 081°08'0 0.0
2018-Feb-13 07:00N 32°08' W 081°08'0 0.0
2018-Feb-13 06:30N 32°08' W 081°08'0 0.0
2018-Feb-13 06:00N 32°08' W 081°08'0 0.0
2018-Feb-13 05:30N 32°08' W 081°08'1 1.6
2018-Feb-13 05:00N 32°07' W 081°08'3 5.0
2018-Feb-13 04:30N 32°05' W 081°06'3 5.5
2018-Feb-13 03:59N 32°05' W 081°02'4 8.4
2018-Feb-13 03:30N 32°04' W 080°58'5 9.4
2018-Feb-13 03:00N 32°02' W 080°53'611.7
2018-Feb-13 02:30N 31°60' W 080°47'611.6
2018-Feb-13 02:00N 31°58' W 080°40'4 8.3
2018-Feb-13 01:30N 31°59' W 080°36'1 1.9
2018-Feb-13 00:53N 31°60' W 080°35'0 0.1
2018-Feb-13 00:29N 31°60' W 080°35'0 0.1
2018-Feb-12 23:59N 31°60' W 080°35'0 0.0
2018-Feb-12 23:29N 31°60' W 080°35'0 0.0
2018-Feb-12 22:41N 31°60' W 080°35'0 0.1
2018-Feb-12 22:29N 31°60' W 080°35'0 0.1
2018-Feb-12 21:53N 31°60' W 080°35'0 0.1
2018-Feb-12 21:29N 31°60' W 080°35'0 0.0
2018-Feb-12 20:59N 31°60' W 080°35'0 0.0
2018-Feb-12 20:23N 31°60' W 080°35'0 0.0
2018-Feb-12 19:59N 31°60' W 080°35'0 0.0
2018-Feb-12 19:29N 31°60' W 080°35'0 0.0
2018-Feb-12 18:59N 31°60' W 080°35'0 0.0
2018-Feb-12 18:23N 31°60' W 080°35'0 0.0
2018-Feb-12 17:59N 31°60' W 080°35'0 0.1
2018-Feb-12 17:23N 31°60' W 080°35'0 0.3
2018-Feb-12 16:59N 31°60' W 080°35'0 0.2
2018-Feb-12 16:23N 31°60' W 080°35'0 0.1
2018-Feb-12 15:59N 31°60' W 080°35'0 0.0
2018-Feb-12 15:17N 31°60' W 080°35'0 0.1
2018-Feb-12 15:01N 31°60' W 080°35'3 6.2
2018-Feb-12 14:30N 31°57' W 080°34'5 9.6
2018-Feb-12 14:00N 31°52' W 080°33'5 9.5
2018-Feb-12 13:31N 31°47' W 080°32'5 9.5
2018-Feb-12 13:01N 31°43' W 080°31'1111.0
2018-Feb-12 12:03N 31°33' W 080°26'111.5
2018-Feb-12 11:57N 31°32' W 080°25'25112.0
2018-Feb-11 15:00N 27°24' W 079°42'5017.6 180 / 111024.210.8 27.022.625.0
2018-Feb-11 12:09N 26°34' W 079°46'320.5
2018-Feb-11 12:00N 26°31' W 079°47'1020.3
2018-Feb-11 11:30N 26°21' W 079°48'1020.3
2018-Feb-11 11:00N 26°11' W 079°50'1020.1
2018-Feb-11 10:30N 26°01' W 079°52'1020.3
2018-Feb-11 10:00N 25°51' W 079°53'1020.3
2018-Feb-11 09:30N 25°41' W 079°55'1020.3
2018-Feb-11 09:00N 25°31' W 079°58'1020.2
2018-Feb-11 08:30N 25°21' W 080°00'80716.3
2018-Feb-09 07:00N 29°12' W 094°31'2113.8
2018-Feb-09 05:31N 29°24' W 094°49'1413.7
2018-Feb-09 04:30N 29°36' W 094°57'5 0.2
2018-Feb-08 04:00N 29°41' W 094°60'1 1.2
2018-Feb-08 03:30N 29°41' W 094°59'8 8.3
2018-Feb-08 02:30N 29°33' W 094°55'1211.7
2018-Feb-08 01:29N 29°23' W 094°48'510.4
2018-Feb-08 01:00N 29°21' W 094°43'1211.9
2018-Feb-08 00:01N 29°15' W 094°31'2 7.9
2018-Feb-07 23:44N 29°13' W 094°30'  

Dump ship's entire track history